Nearby METAR Reports

 

KTTN - Trenton, New Jersey, USA
Distance from station: WNW 11mi, 17km
Updated: Mon, 06-Feb-2023 3:53pm EST
Overcast
Overcast
 Wind from N
Wind: N 15 mph , 24 km/h, Gust: 24 mph , 39 km/h
Temperature: 45°F , 7°C
Wind Chill: 38°F , 3°C
Dew Point: 28°F , -2°C
Humidity: 53%
Barometer: 30.05 inHg , 1017.6 hPa
Clouds: Overcast
Visibility: 10 miles , 16 km
Cloud details: Overcast 3600 ft
2023/02/06 20:53 KTTN 062053Z 36013G21KT 10SM OVC036 07/M02 A3005 RMK AO2 PK WND 35026/2020 SLP173 T00671017 53015
KWRI - Wrightst/Mcguire, New Jersey, USA
Distance from station: SSE 14mi, 22km
Updated: Mon, 06-Feb-2023 3:55pm EST
Overcast
Overcast
 Wind from NNW
Wind: NNW 17 mph , 28 km/h, Gust: 24 mph , 39 km/h
Temperature: 45°F , 7°C
Wind Chill: 38°F , 3°C
Dew Point: 30°F , -1°C
Humidity: 57%
Barometer: 30.04 inHg , 1017.3 hPa
Clouds: Overcast
Visibility: 10 miles , 16 km
Cloud details: Overcast 4000 ft
2023/02/06 20:55 KWRI 062055Z AUTO 34015G21KT 10SM OVC040 07/M01 A3004 RMK AO2 PK WND 31028/20 SLP173 T00731014 53019 $
 
KNEL - Lakehurst Nas, New Jersey, USA
Distance from station: SE 21mi, 34km
Updated: Mon, 06-Feb-2023 4:00pm EST

 Wind from NNW
Wind: NNW 10 mph , 17 km/h, Gust: 24 mph , 39 km/h
Temperature: 46°F , 8°C
Wind Chill: 41°F , 5°C
Dew Point: 30°F , -1°C
Humidity: 53%
Barometer: 30.02 inHg , 1016.6 hPa
2023/02/06 21:00 KNEL 062100Z AUTO 33009G21KT 280V360 08/M01 A3002 RMK AO2 SLP165 6//// T00831011 $
KPNE - Philadelphia/Ne, Pennsylvania, USA
Distance from station: WSW 22mi, 35km
Updated: Mon, 06-Feb-2023 3:54pm EST
Overcast
Overcast
 Wind from NNW
Wind: NNW 22 mph , 35 km/h, Gust: 28 mph , 44 km/h
Temperature: 46°F , 8°C
Wind Chill: 38°F , 3°C
Dew Point: 28°F , -2°C
Humidity: 50%
Barometer: 30.08 inHg , 1018.6 hPa
Clouds: Overcast
Visibility: 10 miles , 16 km
Cloud details: Overcast 3900 ft
2023/02/06 20:54 KPNE 062054Z 34019G24KT 10SM OVC039 08/M02 A3008 RMK AO2 PK WND 35030/2036 SLP188 T00781022 53017
 
KVAY - Mount Holly, New Jersey, USA
Distance from station: SSW 22mi, 35km
Updated: Mon, 06-Feb-2023 3:54pm EST
Overcast
Overcast
 Wind from NNW
Wind: NNW 18 mph , 30 km/h, Gust: 26 mph , 43 km/h
Temperature: 46°F , 8°C
Wind Chill: 39°F , 4°C
Dew Point: 30°F , -1°C
Humidity: 53%
Barometer: 30.06 inHg , 1017.9 hPa
Clouds: Overcast
Visibility: 10 miles , 16 km
Cloud details: Overcast 3900 ft
2023/02/06 20:54 KVAY 062054Z AUTO 34016G23KT 10SM OVC039 08/M01 A3006 RMK AO2 PK WND 35028/2033 SLP180 T00781011 53017
KMJX - Toms River, New Jersey, USA
Distance from station: SE 26mi, 42km
Updated: Fri, 20-Jan-2023 10:56am EST
NOT Current
Mostly cloudy
Mostly cloudy
 Wind from W
Wind: W 18 mph , 30 km/h, Gust: 25 mph , 41 km/h
Temperature: 48°F , 9°C
Wind Chill: 41°F , 5°C
Dew Point: 36°F , 2°C
Humidity: 62%
Barometer: 29.70 inHg , 1005.8 hPa
Clouds: Mostly cloudy
Visibility: 10 miles , 16 km
Cloud details: Mostly cloudy 4500 ft
2023/01/20 15:56 KMJX 201556Z AUTO 28016G22KT 10SM BKN045 09/02 A2970 RMK AO2 SLP062 T00940017 TSNO
 
KDYL - Doylestown, Pennsylvania, USA
Distance from station: WNW 27mi, 43km
Updated: Mon, 06-Feb-2023 3:54pm EST
Overcast
Overcast
 Wind from N
Wind: N 10 mph , 17 km/h, Gust: 21 mph , 33 km/h
Temperature: 45°F , 7°C
Wind Chill: 40°F , 4°C
Dew Point: 28°F , -2°C
Humidity: 53%
Barometer: 30.06 inHg , 1017.9 hPa
Clouds: Overcast
Visibility: 10 miles , 16 km
Cloud details: Overcast 3500 ft
2023/02/06 20:54 KDYL 062054Z AUTO 35009G18KT 10SM OVC035 07/M02 A3006 RMK AO2 SLP185 T00721022 53009 $
KBLM - Belmar/Farmdale, New Jersey, USA
Distance from station: E 28mi, 45km
Updated: Mon, 06-Feb-2023 3:56pm EST
Overcast
Overcast
 Wind from NNW
Wind: NNW 20 mph , 31 km/h, Gust: 25 mph , 41 km/h
Barometer: 30.02 inHg , 1016.6 hPa
Clouds: Overcast
Visibility: 10 miles , 16 km
Cloud details: Overcast 4500 ft
2023/02/06 20:56 KBLM 062056Z AUTO 33017G22KT 10SM OVC045 A3002 RMK AO2 PK WND 32026/2003 SLPNO 53020 FZRANO $
 
KSMQ - Somerville, New Jersey, USA
Distance from station: N 28mi, 45km
Updated: Mon, 06-Feb-2023 3:53pm EST
Overcast
Overcast
 Wind from NNW
Wind: NNW 13 mph , 20 km/h, Gust: 22 mph , 35 km/h
Temperature: 45°F , 7°C
Wind Chill: 39°F , 4°C
Dew Point: 28°F , -2°C
Humidity: 53%
Barometer: 30.05 inHg , 1017.6 hPa
Clouds: Overcast
Visibility: 10 miles , 16 km
Cloud details: Overcast 4200 ft
2023/02/06 20:53 KSMQ 062053Z AUTO 34011G19KT 10SM OVC042 07/M02 A3005 RMK AO2 SLP177 T00721017 53012
KLOM - Philly Wings F, Pennsylvania, USA
Distance from station: W 34mi, 54km
Updated: Mon, 06-Feb-2023 4:15pm EST
Overcast
Overcast
 Wind from N
Wind: N 14 mph , 22 km/h, Gust: 20 mph , 31 km/h
Temperature: 43°F , 6°C
Wind Chill: 36°F , 2°C
Dew Point: 30°F , -1°C
Humidity: 61%
Barometer: 30.09 inHg , 1019 hPa
Clouds: Overcast
Visibility: 10 miles , 16 km
Cloud details: Overcast 3600 ft
2023/02/06 21:15 KLOM 062115Z AUTO 35012G17KT 10SM OVC036 06/M01 A3009 RMK AO2 T00601012
 
KLDJ - Linden, New Jersey, USA
Distance from station: NE 35mi, 56km
Updated: Mon, 23-Jan-2023 11:55am EST
NOT Current
Drizzle, Overcast
Drizzle, Overcast
 Wind from WNW
Wind: WNW 10 mph , 17 km/h
Temperature: 39°F , 4°C
Wind Chill: 32°F , 0°C
Dew Point: 36°F , 2°C
Humidity: 87%
Barometer: 29.57 inHg , 1001.4 hPa
Summary: Drizzle
Clouds: Overcast
Visibility: 5 miles , 8 km
Cloud details: Partly cloudy 900 ft
Mostly cloudy 1400 ft
Overcast 1900 ft
2023/01/23 16:55 KLDJ 231655Z AUTO 30009KT 5SM DZ SCT009 BKN014 OVC019 04/02 A2957 RMK AO2 T00350020
KCKZ - Perkasie, Pennsylvania, USA
Distance from station: WNW 36mi, 58km
Updated: Mon, 06-Feb-2023 4:15pm EST
Overcast
Overcast
 Wind from NNW
Wind: NNW 8 mph , 13 km/h, Gust: 18 mph , 30 km/h
Temperature: 41°F , 5°C
Wind Chill: 36°F , 2°C
Dew Point: 28°F , -2°C
Humidity: 61%
Barometer: 30.09 inHg , 1019 hPa
Clouds: Overcast
Visibility: 10 miles , 16 km
Cloud details: Overcast 3200 ft
2023/02/06 21:15 KCKZ 062115Z AUTO 34007G16KT 290V360 10SM OVC032 05/M02 A3009 RMK AO2
 
KPHL - Philadelphia, Pennsylvania, USA
Distance from station: SW 40mi, 64km
Updated: Mon, 06-Feb-2023 3:54pm EST
Overcast
Overcast
 Wind from N
Wind: N 20 mph , 31 km/h, Gust: 28 mph , 44 km/h
Temperature: 46°F , 8°C
Wind Chill: 38°F , 3°C
Dew Point: 28°F , -2°C
Humidity: 50%
Barometer: 30.08 inHg , 1018.6 hPa
Clouds: Overcast
Visibility: 10 miles , 16 km
Cloud details: Overcast 3900 ft
2023/02/06 20:54 KPHL 062054Z 35017G24KT 10SM OVC039 08/M02 A3008 RMK AO2 PK WND 36029/1957 SLP184 T00781017 53017 $
KEWR - Newark, New Jersey, USA
Distance from station: NE 41mi, 66km
Updated: Mon, 06-Feb-2023 3:51pm EST
Mostly cloudy
Mostly cloudy
 Wind from NNW
Wind: NNW 23 mph , 37 km/h, Gust: 29 mph , 46 km/h
Temperature: 48°F , 9°C
Wind Chill: 40°F , 4°C
Dew Point: 28°F , -2°C
Humidity: 46%
Barometer: 30.03 inHg , 1016.9 hPa
Clouds: Mostly cloudy
Visibility: 10 miles , 16 km
Cloud details: Mostly cloudy 4200 ft
Mostly cloudy 10000 ft
2023/02/06 20:51 KEWR 062051Z 34020G25KT 10SM BKN042 BKN100 09/M02 A3003 RMK AO2 PK WND 34029/2038 SLP169 T00891017 53016
 
KMMU - Morristown Muni, New Jersey, USA
Distance from station: NNE 41mi, 66km
Updated: Mon, 06-Feb-2023 3:45pm EST
Mostly cloudy
Mostly cloudy
 Wind from N
Wind: N 16 mph , 26 km/h, Gust: 23 mph , 37 km/h
Temperature: 46°F , 8°C
Wind Chill: 39°F , 4°C
Dew Point: 30°F , -1°C
Humidity: 53%
Barometer: 30.05 inHg , 1017.6 hPa
Clouds: Mostly cloudy
Visibility: 10 miles , 16 km
Cloud details: Mostly cloudy 4000 ft
2023/02/06 20:45 KMMU 062045Z 01014G20KT 10SM BKN040 08/M01 A3005
KUKT - Quakertown Arp, Pennsylvania, USA
Distance from station: WNW 42mi, 68km
Updated: Mon, 06-Feb-2023 4:15pm EST
Overcast
Overcast
 Wind from NW
Wind: NW 7 mph , 11 km/h, Gust: 20 mph , 31 km/h
Temperature: 41°F , 5°C
Wind Chill: 36°F , 2°C
Dew Point: 30°F , -1°C
Humidity: 66%
Barometer: 30.09 inHg , 1019 hPa
Clouds: Overcast
Visibility: 10 miles , 16 km
Cloud details: Overcast 3300 ft
2023/02/06 21:15 KUKT 062115Z AUTO 31006G17KT 10SM OVC033 05/M01 A3009 RMK A01
 
KJRB - Manhattan/Dwntwn, New York, USA
Distance from station: NE 47mi, 75km
Updated: Mon, 06-Feb-2023 3:56pm EST
Overcast
Overcast
 Wind from E
Wind: E 8 mph , 13 km/h
Temperature: 48°F , 9°C
Wind Chill: 44°F , 7°C
Dew Point: 28°F , -2°C
Humidity: 46%
Barometer: 30.04 inHg , 1017.3 hPa
Clouds: Overcast
Visibility: 10 miles , 16 km
Cloud details: Overcast 4100 ft
2023/02/06 20:56 KJRB 062056Z AUTO 09007KT 050V150 10SM OVC041 09/M02 A3004 RMK AO2 SLP171 60001 T00891017 53018
KPTW - Pottstown, Pennsylvania, USA
Distance from station: W 48mi, 77km
Updated: Mon, 23-Jan-2023 12:01pm EST
NOT Current
Light rain, Mist, Overcast
Light rain, Mist, Overcast
 Wind from WNW
Wind: WNW 9 mph , 15 km/h
Temperature: 36°F , 2°C
Wind Chill: 29°F , -2°C
Dew Point: 34°F , 1°C
Humidity: 93%
Barometer: 29.66 inHg , 1004.4 hPa
Summary: Light rain, Mist
Clouds: Overcast
Visibility: 6 miles , 10 km
Cloud details: Partly cloudy 1100 ft
Mostly cloudy 1900 ft
Overcast 2500 ft
2023/01/23 17:01 KPTW 231701Z AUTO 29008KT 6SM -RA BR SCT011 BKN019 OVC025 02/01 A2966 RMK AO2 P0001 T00170011
 
KCDW - Caldwell, New Jersey, USA
Distance from station: NNE 50mi, 80km
Updated: Mon, 06-Feb-2023 3:53pm EST
Overcast
Overcast
 Wind from N
Wind: N 9 mph , 15 km/h, Gust: 16 mph , 26 km/h
Temperature: 46°F , 8°C
Wind Chill: 41°F , 5°C
Dew Point: 27°F , -3°C
Humidity: 46%
Barometer: 30.05 inHg , 1017.6 hPa
Clouds: Overcast
Visibility: 10 miles , 16 km
Cloud details: Overcast 4000 ft
2023/02/06 20:53 KCDW 062053Z AUTO 36008G14KT 320V030 10SM OVC040 08/M03 A3005 RMK AO2 SLP181 T00781028 53012